sensor_id;sensor_type;location;lat;lon;timestamp;pressure;altitude;pressure_sealevel;temperature;humidity
50867;BME280;36839;51.946;21.002;2023-09-08T00:00:26;101155.38;;;14.16;100.00
50867;BME280;36839;51.946;21.002;2023-09-08T00:03:12;101156.65;;;14.13;100.00
50867;BME280;36839;51.946;21.002;2023-09-08T00:05:41;101154.52;;;14.12;100.00
50867;BME280;36839;51.946;21.002;2023-09-08T00:08:07;101154.95;;;14.09;100.00
50867;BME280;36839;51.946;21.002;2023-09-08T00:10:33;101155.88;;;14.04;100.00
50867;BME280;36839;51.946;21.002;2023-09-08T00:12:59;101153.34;;;14.00;100.00
50867;BME280;36839;51.946;21.002;2023-09-08T00:15:25;101148.33;;;13.93;100.00
50867;BME280;36839;51.946;21.002;2023-09-08T00:17:54;101143.80;;;13.89;100.00
50867;BME280;36839;51.946;21.002;2023-09-08T00:20:25;101142.85;;;13.86;100.00
50867;BME280;36839;51.946;21.002;2023-09-08T00:22:55;101144.49;;;13.84;100.00
50867;BME280;36839;51.946;21.002;2023-09-08T00:25:23;101140.70;;;13.81;100.00
50867;BME280;36839;51.946;21.002;2023-09-08T00:27:54;101137.80;;;13.81;100.00
50867;BME280;36839;51.946;21.002;2023-09-08T00:30:26;101135.98;;;13.80;100.00
50867;BME280;36839;51.946;21.002;2023-09-08T00:33:06;101131.48;;;13.79;100.00
50867;BME280;36839;51.946;21.002;2023-09-08T00:35:36;101136.86;;;13.79;100.00
50867;BME280;36839;51.946;21.002;2023-09-08T00:38:06;101131.85;;;13.77;100.00
50867;BME280;36839;51.946;21.002;2023-09-08T00:40:33;101133.52;;;13.75;100.00
50867;BME280;36839;51.946;21.002;2023-09-08T00:43:01;101132.30;;;13.70;100.00
50867;BME280;36839;51.946;21.002;2023-09-08T00:45:29;101130.57;;;13.66;100.00
50867;BME280;36839;51.946;21.002;2023-09-08T00:48:00;101134.59;;;13.61;100.00
50867;BME280;36839;51.946;21.002;2023-09-08T00:50:41;101133.97;;;13.57;100.00
50867;BME280;36839;51.946;21.002;2023-09-08T00:53:07;101137.91;;;13.57;100.00
50867;BME280;36839;51.946;21.002;2023-09-08T00:55:35;101133.69;;;13.57;100.00
50867;BME280;36839;51.946;21.002;2023-09-08T00:58:06;101132.70;;;13.58;100.00
50867;BME280;36839;51.946;21.002;2023-09-08T01:00:33;101131.35;;;13.58;100.00
50867;BME280;36839;51.946;21.002;2023-09-08T01:03:04;101132.69;;;13.58;100.00
50867;BME280;36839;51.946;21.002;2023-09-08T01:05:34;101135.63;;;13.58;100.00
50867;BME280;36839;51.946;21.002;2023-09-08T01:08:04;101137.97;;;13.61;100.00
50867;BME280;36839;51.946;21.002;2023-09-08T01:10:34;101135.86;;;13.61;100.00
50867;BME280;36839;51.946;21.002;2023-09-08T01:13:03;101136.20;;;13.61;100.00
50867;BME280;36839;51.946;21.002;2023-09-08T01:15:30;101138.80;;;13.60;100.00
50867;BME280;36839;51.946;21.002;2023-09-08T01:17:56;101135.19;;;13.60;100.00
50867;BME280;36839;51.946;21.002;2023-09-08T01:20:41;101140.63;;;13.58;100.00
50867;BME280;36839;51.946;21.002;2023-09-08T01:26:10;101136.40;;;13.48;100.00
50867;BME280;36839;51.946;21.002;2023-09-08T01:28:45;101137.80;;;13.43;100.00
50867;BME280;36839;51.946;21.002;2023-09-08T01:31:18;101139.17;;;13.39;100.00
50867;BME280;36839;51.946;21.002;2023-09-08T01:33:46;101136.61;;;13.38;100.00
50867;BME280;36839;51.946;21.002;2023-09-08T01:36:26;101129.29;;;13.40;100.00
50867;BME280;36839;51.946;21.002;2023-09-08T01:38:54;101126.41;;;13.40;100.00
50867;BME280;36839;51.946;21.002;2023-09-08T01:41:23;101124.30;;;13.40;100.00
50867;BME280;36839;51.946;21.002;2023-09-08T01:43:51;101123.76;;;13.42;100.00
50867;BME280;36839;51.946;21.002;2023-09-08T01:46:21;101126.58;;;13.42;100.00
50867;BME280;36839;51.946;21.002;2023-09-08T01:48:55;101121.37;;;13.41;100.00
50867;BME280;36839;51.946;21.002;2023-09-08T01:51:22;101123.92;;;13.42;100.00
50867;BME280;36839;51.946;21.002;2023-09-08T01:53:50;101123.69;;;13.42;100.00
50867;BME280;36839;51.946;21.002;2023-09-08T01:56:17;101122.81;;;13.42;100.00
50867;BME280;36839;51.946;21.002;2023-09-08T01:58:46;101118.92;;;13.42;100.00
50867;BME280;36839;51.946;21.002;2023-09-08T02:01:13;101117.92;;;13.41;100.00
50867;BME280;36839;51.946;21.002;2023-09-08T02:03:40;101117.59;;;13.41;100.00
50867;BME280;36839;51.946;21.002;2023-09-08T02:06:07;101119.20;;;13.41;100.00
50867;BME280;36839;51.946;21.002;2023-09-08T02:08:34;101114.98;;;13.41;100.00
50867;BME280;36839;51.946;21.002;2023-09-08T02:11:00;101115.58;;;13.40;100.00
50867;BME280;36839;51.946;21.002;2023-09-08T02:13:29;101117.75;;;13.39;100.00
50867;BME280;36839;51.946;21.002;2023-09-08T02:15:58;101111.42;;;13.37;100.00
50867;BME280;36839;51.946;21.002;2023-09-08T02:18:26;101113.20;;;13.35;100.00
50867;BME280;36839;51.946;21.002;2023-09-08T02:20:55;101112.98;;;13.34;100.00
50867;BME280;36839;51.946;21.002;2023-09-08T02:23:21;101109.91;;;13.31;100.00
50867;BME280;36839;51.946;21.002;2023-09-08T02:25:48;101109.64;;;13.28;100.00
50867;BME280;36839;51.946;21.002;2023-09-08T02:28:16;101108.93;;;13.26;100.00
50867;BME280;36839;51.946;21.002;2023-09-08T02:30:47;101108.97;;;13.24;100.00
50867;BME280;36839;51.946;21.002;2023-09-08T02:33:16;101105.02;;;13.22;100.00
50867;BME280;36839;51.946;21.002;2023-09-08T02:35:51;101103.95;;;13.20;100.00
50867;BME280;36839;51.946;21.002;2023-09-08T02:38:32;101098.36;;;13.16;100.00
50867;BME280;36839;51.946;21.002;2023-09-08T02:41:01;101098.27;;;13.12;100.00
50867;BME280;36839;51.946;21.002;2023-09-08T02:43:35;101095.27;;;13.12;100.00
50867;BME280;36839;51.946;21.002;2023-09-08T02:46:05;101092.27;;;13.11;100.00
50867;BME280;36839;51.946;21.002;2023-09-08T02:48:33;101091.09;;;13.08;100.00
50867;BME280;36839;51.946;21.002;2023-09-08T02:51:11;101089.56;;;13.06;100.00
50867;BME280;36839;51.946;21.002;2023-09-08T02:53:41;101087.64;;;13.08;100.00
50867;BME280;36839;51.946;21.002;2023-09-08T02:56:08;101084.81;;;13.08;100.00
50867;BME280;36839;51.946;21.002;2023-09-08T02:58:37;101084.56;;;13.05;100.00
50867;BME280;36839;51.946;21.002;2023-09-08T03:01:32;101089.55;;;13.04;100.00
50867;BME280;36839;51.946;21.002;2023-09-08T03:04:01;101089.54;;;13.02;100.00
50867;BME280;36839;51.946;21.002;2023-09-08T03:06:28;101092.09;;;13.02;100.00
50867;BME280;36839;51.946;21.002;2023-09-08T03:08:58;101091.14;;;13.01;100.00
50867;BME280;36839;51.946;21.002;2023-09-08T03:11:29;101087.77;;;13.02;100.00
50867;BME280;36839;51.946;21.002;2023-09-08T03:13:58;101089.15;;;13.03;100.00
50867;BME280;36839;51.946;21.002;2023-09-08T03:16:24;101085.99;;;13.03;100.00
50867;BME280;36839;51.946;21.002;2023-09-08T03:18:50;101089.04;;;13.03;100.00
50867;BME280;36839;51.946;21.002;2023-09-08T03:21:17;101083.77;;;13.00;100.00
50867;BME280;36839;51.946;21.002;2023-09-08T03:23:45;101082.27;;;12.95;100.00
50867;BME280;36839;51.946;21.002;2023-09-08T03:26:13;101085.41;;;12.91;100.00
50867;BME280;36839;51.946;21.002;2023-09-08T03:28:42;101087.29;;;12.86;100.00
50867;BME280;36839;51.946;21.002;2023-09-08T03:31:11;101084.27;;;12.83;100.00
50867;BME280;36839;51.946;21.002;2023-09-08T03:33:37;101083.89;;;12.77;100.00
50867;BME280;36839;51.946;21.002;2023-09-08T03:36:03;101085.48;;;12.77;100.00
50867;BME280;36839;51.946;21.002;2023-09-08T03:38:33;101082.05;;;12.77;100.00
50867;BME280;36839;51.946;21.002;2023-09-08T03:41:02;101080.89;;;12.77;100.00
50867;BME280;36839;51.946;21.002;2023-09-08T03:43:28;101081.60;;;12.74;100.00
50867;BME280;36839;51.946;21.002;2023-09-08T03:45:54;101077.38;;;12.72;100.00
50867;BME280;36839;51.946;21.002;2023-09-08T03:48:20;101078.01;;;12.70;100.00
50867;BME280;36839;51.946;21.002;2023-09-08T03:50:46;101072.05;;;12.68;100.00
50867;BME280;36839;51.946;21.002;2023-09-08T03:53:13;101071.59;;;12.65;100.00
50867;BME280;36839;51.946;21.002;2023-09-08T03:55:39;101074.78;;;12.62;100.00
50867;BME280;36839;51.946;21.002;2023-09-08T03:58:10;101077.38;;;12.54;100.00
50867;BME280;36839;51.946;21.002;2023-09-08T04:00:37;101072.85;;;12.47;100.00
50867;BME280;36839;51.946;21.002;2023-09-08T04:03:11;101074.44;;;12.43;100.00
50867;BME280;36839;51.946;21.002;2023-09-08T04:05:39;101073.23;;;12.41;100.00
50867;BME280;36839;51.946;21.002;2023-09-08T04:08:08;101069.39;;;12.39;100.00
50867;BME280;36839;51.946;21.002;2023-09-08T04:10:41;101068.73;;;12.38;100.00
50867;BME280;36839;51.946;21.002;2023-09-08T04:13:08;101067.48;;;12.37;100.00
50867;BME280;36839;51.946;21.002;2023-09-08T04:15:43;101062.94;;;12.34;100.00
50867;BME280;36839;51.946;21.002;2023-09-08T04:18:11;101063.41;;;12.28;100.00
50867;BME280;36839;51.946;21.002;2023-09-08T04:20:39;101061.63;;;12.26;100.00
50867;BME280;36839;51.946;21.002;2023-09-08T04:23:09;101064.00;;;12.25;100.00
50867;BME280;36839;51.946;21.002;2023-09-08T04:25:35;101064.62;;;12.22;100.00
50867;BME280;36839;51.946;21.002;2023-09-08T04:28:02;101062.55;;;12.21;100.00
50867;BME280;36839;51.946;21.002;2023-09-08T04:30:32;101069.98;;;12.21;100.00
50867;BME280;36839;51.946;21.002;2023-09-08T04:33:06;101071.52;;;12.20;100.00
50867;BME280;36839;51.946;21.002;2023-09-08T04:35:43;101073.09;;;12.25;100.00
50867;BME280;36839;51.946;21.002;2023-09-08T04:38:12;101074.35;;;12.31;100.00
50867;BME280;36839;51.946;21.002;2023-09-08T04:40:42;101079.45;;;12.36;100.00
50867;BME280;36839;51.946;21.002;2023-09-08T04:43:11;101079.14;;;12.43;100.00
50867;BME280;36839;51.946;21.002;2023-09-08T04:45:39;101078.50;;;12.51;100.00
50867;BME280;36839;51.946;21.002;2023-09-08T04:48:07;101076.59;;;12.60;100.00
50867;BME280;36839;51.946;21.002;2023-09-08T04:50:33;101079.66;;;12.69;100.00
50867;BME280;36839;51.946;21.002;2023-09-08T04:53:00;101079.55;;;12.76;100.00
50867;BME280;36839;51.946;21.002;2023-09-08T04:55:30;101077.62;;;12.82;100.00
50867;BME280;36839;51.946;21.002;2023-09-08T04:57:57;101077.67;;;12.90;100.00
50867;BME280;36839;51.946;21.002;2023-09-08T05:00:25;101079.69;;;12.98;100.00
50867;BME280;36839;51.946;21.002;2023-09-08T05:02:54;101078.28;;;13.04;100.00
50867;BME280;36839;51.946;21.002;2023-09-08T05:05:22;101077.05;;;13.08;100.00
50867;BME280;36839;51.946;21.002;2023-09-08T05:07:48;101074.92;;;13.14;100.00
50867;BME280;36839;51.946;21.002;2023-09-08T05:10:15;101067.45;;;13.21;100.00
50867;BME280;36839;51.946;21.002;2023-09-08T05:12:44;101065.79;;;13.29;100.00
50867;BME280;36839;51.946;21.002;2023-09-08T05:15:10;101067.33;;;13.34;100.00
50867;BME280;36839;51.946;21.002;2023-09-08T05:17:40;101066.15;;;13.42;100.00
50867;BME280;36839;51.946;21.002;2023-09-08T05:20:09;101065.36;;;13.52;100.00
50867;BME280;36839;51.946;21.002;2023-09-08T05:22:42;101071.38;;;13.66;100.00
50867;BME280;36839;51.946;21.002;2023-09-08T05:25:09;101065.56;;;13.79;100.00
50867;BME280;36839;51.946;21.002;2023-09-08T05:27:47;101069.61;;;13.93;100.00
50867;BME280;36839;51.946;21.002;2023-09-08T05:30:16;101066.38;;;14.06;100.00
50867;BME280;36839;51.946;21.002;2023-09-08T05:32:44;101067.36;;;14.16;100.00
50867;BME280;36839;51.946;21.002;2023-09-08T05:35:14;101065.83;;;14.26;100.00
50867;BME280;36839;51.946;21.002;2023-09-08T05:37:41;101068.91;;;14.37;100.00
50867;BME280;36839;51.946;21.002;2023-09-08T05:40:07;101063.05;;;14.49;100.00
50867;BME280;36839;51.946;21.002;2023-09-08T05:42:37;101066.30;;;14.63;100.00
50867;BME280;36839;51.946;21.002;2023-09-08T05:45:06;101062.14;;;14.75;100.00
50867;BME280;36839;51.946;21.002;2023-09-08T05:47:34;101059.91;;;14.89;100.00
50867;BME280;36839;51.946;21.002;2023-09-08T05:50:14;101062.69;;;15.03;100.00
50867;BME280;36839;51.946;21.002;2023-09-08T05:52:43;101061.73;;;15.16;100.00
50867;BME280;36839;51.946;21.002;2023-09-08T05:55:09;101065.55;;;15.30;100.00
50867;BME280;36839;51.946;21.002;2023-09-08T05:57:35;101065.74;;;15.43;100.00
50867;BME280;36839;51.946;21.002;2023-09-08T06:00:06;101065.31;;;15.55;100.00
50867;BME280;36839;51.946;21.002;2023-09-08T06:02:35;101060.80;;;15.68;100.00
50867;BME280;36839;51.946;21.002;2023-09-08T06:05:04;101060.70;;;15.81;100.00
50867;BME280;36839;51.946;21.002;2023-09-08T06:07:33;101057.27;;;15.97;100.00
50867;BME280;36839;51.946;21.002;2023-09-08T06:09:59;101059.15;;;16.12;100.00
50867;BME280;36839;51.946;21.002;2023-09-08T06:12:25;101057.63;;;16.26;100.00
50867;BME280;36839;51.946;21.002;2023-09-08T06:14:51;101059.43;;;16.39;100.00
50867;BME280;36839;51.946;21.002;2023-09-08T06:17:18;101059.84;;;16.52;100.00
50867;BME280;36839;51.946;21.002;2023-09-08T06:19:45;101057.71;;;16.64;100.00
50867;BME280;36839;51.946;21.002;2023-09-08T06:22:13;101057.46;;;16.76;100.00
50867;BME280;36839;51.946;21.002;2023-09-08T06:24:43;101060.98;;;16.97;100.00
50867;BME280;36839;51.946;21.002;2023-09-08T06:27:13;101061.35;;;17.16;100.00
50867;BME280;36839;51.946;21.002;2023-09-08T06:29:45;101058.64;;;17.30;100.00
50867;BME280;36839;51.946;21.002;2023-09-08T06:32:14;101058.77;;;17.40;100.00
50867;BME280;36839;51.946;21.002;2023-09-08T06:34:43;101053.39;;;17.51;100.00
50867;BME280;36839;51.946;21.002;2023-09-08T06:37:08;101049.66;;;17.60;100.00
50867;BME280;36839;51.946;21.002;2023-09-08T06:39:38;101050.53;;;17.68;100.00
50867;BME280;36839;51.946;21.002;2023-09-08T06:42:06;101050.20;;;17.79;100.00
50867;BME280;36839;51.946;21.002;2023-09-08T06:44:34;101049.98;;;17.87;100.00
50867;BME280;36839;51.946;21.002;2023-09-08T06:47:01;101048.46;;;18.00;100.00
50867;BME280;36839;51.946;21.002;2023-09-08T06:49:30;101047.19;;;18.11;100.00
50867;BME280;36839;51.946;21.002;2023-09-08T06:51:56;101045.80;;;18.23;100.00
50867;BME280;36839;51.946;21.002;2023-09-08T06:54:23;101048.41;;;18.36;100.00
50867;BME280;36839;51.946;21.002;2023-09-08T06:56:49;101046.45;;;18.47;100.00
50867;BME280;36839;51.946;21.002;2023-09-08T06:59:19;101043.13;;;18.60;100.00
50867;BME280;36839;51.946;21.002;2023-09-08T07:01:46;101045.51;;;18.74;100.00
50867;BME280;36839;51.946;21.002;2023-09-08T07:04:17;101045.20;;;18.85;100.00
50867;BME280;36839;51.946;21.002;2023-09-08T07:06:42;101037.49;;;18.97;100.00
50867;BME280;36839;51.946;21.002;2023-09-08T07:09:13;101036.95;;;19.09;100.00
50867;BME280;36839;51.946;21.002;2023-09-08T07:11:42;101037.13;;;19.21;100.00
50867;BME280;36839;51.946;21.002;2023-09-08T07:14:12;101039.55;;;19.32;100.00
50867;BME280;36839;51.946;21.002;2023-09-08T07:16:52;101039.33;;;19.46;100.00
50867;BME280;36839;51.946;21.002;2023-09-08T07:19:20;101040.69;;;19.58;100.00
50867;BME280;36839;51.946;21.002;2023-09-08T07:21:49;101037.40;;;19.68;100.00
50867;BME280;36839;51.946;21.002;2023-09-08T07:24:18;101037.56;;;19.80;100.00
50867;BME280;36839;51.946;21.002;2023-09-08T07:26:44;101034.39;;;19.91;100.00
50867;BME280;36839;51.946;21.002;2023-09-08T07:29:12;101035.30;;;20.02;100.00
50867;BME280;36839;51.946;21.002;2023-09-08T07:31:39;101032.41;;;20.10;100.00
50867;BME280;36839;51.946;21.002;2023-09-08T07:34:06;101034.38;;;20.18;100.00
50867;BME280;36839;51.946;21.002;2023-09-08T07:36:34;101035.86;;;20.28;100.00
50867;BME280;36839;51.946;21.002;2023-09-08T07:39:02;101035.83;;;20.41;100.00
50867;BME280;36839;51.946;21.002;2023-09-08T07:41:31;101036.54;;;20.53;100.00
50867;BME280;36839;51.946;21.002;2023-09-08T07:43:59;101038.39;;;20.63;100.00
50867;BME280;36839;51.946;21.002;2023-09-08T07:46:27;101032.92;;;20.66;100.00
50867;BME280;36839;51.946;21.002;2023-09-08T07:48:52;101038.17;;;20.72;100.00
50867;BME280;36839;51.946;21.002;2023-09-08T07:51:19;101037.08;;;20.78;100.00
50867;BME280;36839;51.946;21.002;2023-09-08T07:53:45;101036.09;;;20.85;100.00
50867;BME280;36839;51.946;21.002;2023-09-08T07:56:12;101033.55;;;20.95;100.00
50867;BME280;36839;51.946;21.002;2023-09-08T07:58:39;101032.96;;;21.06;100.00
50867;BME280;36839;51.946;21.002;2023-09-08T08:01:06;101030.66;;;21.19;100.00
50867;BME280;36839;51.946;21.002;2023-09-08T08:03:34;101029.98;;;21.30;100.00
50867;BME280;36839;51.946;21.002;2023-09-08T08:06:01;101028.15;;;21.40;100.00
50867;BME280;36839;51.946;21.002;2023-09-08T08:08:30;101029.23;;;21.52;100.00
50867;BME280;36839;51.946;21.002;2023-09-08T08:10:56;101023.88;;;21.62;100.00
50867;BME280;36839;51.946;21.002;2023-09-08T08:13:37;101021.83;;;21.74;100.00
50867;BME280;36839;51.946;21.002;2023-09-08T08:16:05;101016.14;;;21.82;100.00
50867;BME280;36839;51.946;21.002;2023-09-08T08:18:33;101016.77;;;21.87;100.00
50867;BME280;36839;51.946;21.002;2023-09-08T08:21:01;101015.14;;;21.96;100.00
50867;BME280;36839;51.946;21.002;2023-09-08T08:23:31;101015.97;;;22.11;100.00
50867;BME280;36839;51.946;21.002;2023-09-08T08:26:02;101014.39;;;22.20;100.00
50867;BME280;36839;51.946;21.002;2023-09-08T08:28:28;101014.93;;;22.30;100.00
50867;BME280;36839;51.946;21.002;2023-09-08T08:30:54;101015.86;;;22.41;100.00
50867;BME280;36839;51.946;21.002;2023-09-08T08:33:24;101016.77;;;22.54;100.00
50867;BME280;36839;51.946;21.002;2023-09-08T08:35:54;101017.57;;;22.63;100.00
50867;BME280;36839;51.946;21.002;2023-09-08T08:38:21;101015.71;;;22.73;100.00
50867;BME280;36839;51.946;21.002;2023-09-08T08:40:48;101010.67;;;22.84;100.00
50867;BME280;36839;51.946;21.002;2023-09-08T08:43:14;101005.52;;;22.96;100.00
50867;BME280;36839;51.946;21.002;2023-09-08T08:45:42;101008.55;;;23.06;99.00
50867;BME280;36839;51.946;21.002;2023-09-08T08:48:13;101010.79;;;23.15;98.84
50867;BME280;36839;51.946;21.002;2023-09-08T08:50:42;101009.27;;;23.20;97.40
50867;BME280;36839;51.946;21.002;2023-09-08T08:53:21;101012.42;;;23.31;98.03
50867;BME280;36839;51.946;21.002;2023-09-08T08:55:49;101010.64;;;23.40;96.45
50867;BME280;36839;51.946;21.002;2023-09-08T08:58:19;101010.23;;;23.47;95.13
50867;BME280;36839;51.946;21.002;2023-09-08T09:00:53;101008.85;;;23.53;93.90
50867;BME280;36839;51.946;21.002;2023-09-08T09:03:23;101005.16;;;23.59;93.17
50867;BME280;36839;51.946;21.002;2023-09-08T09:05:51;101009.37;;;23.75;95.77
50867;BME280;36839;51.946;21.002;2023-09-08T09:08:17;101001.27;;;23.91;95.55
50867;BME280;36839;51.946;21.002;2023-09-08T09:10:46;101003.20;;;24.07;94.45
50867;BME280;36839;51.946;21.002;2023-09-08T09:13:15;101002.88;;;24.19;92.98
50867;BME280;36839;51.946;21.002;2023-09-08T09:15:45;101001.98;;;24.30;90.09
50867;BME280;36839;51.946;21.002;2023-09-08T09:18:13;101000.05;;;24.36;86.76
50867;BME280;36839;51.946;21.002;2023-09-08T09:20:39;101000.11;;;24.43;84.63
50867;BME280;36839;51.946;21.002;2023-09-08T09:23:08;100998.66;;;24.49;82.46
50867;BME280;36839;51.946;21.002;2023-09-08T09:25:36;101000.09;;;24.48;80.51
50867;BME280;36839;51.946;21.002;2023-09-08T09:28:04;100996.91;;;24.50;82.21
50867;BME280;36839;51.946;21.002;2023-09-08T09:31:10;100997.04;;;24.56;82.62
50867;BME280;36839;51.946;21.002;2023-09-08T09:33:41;100997.74;;;24.66;80.63
50867;BME280;36839;51.946;21.002;2023-09-08T09:36:07;100998.55;;;24.70;79.66
50867;BME280;36839;51.946;21.002;2023-09-08T09:38:35;101000.78;;;24.76;78.04
50867;BME280;36839;51.946;21.002;2023-09-08T09:41:01;101000.82;;;24.88;77.37
50867;BME280;36839;51.946;21.002;2023-09-08T09:43:28;100997.54;;;25.00;72.93
50867;BME280;36839;51.946;21.002;2023-09-08T09:45:57;100991.33;;;25.11;70.65
50867;BME280;36839;51.946;21.002;2023-09-08T09:48:24;100988.98;;;25.24;68.05
50867;BME280;36839;51.946;21.002;2023-09-08T09:50:50;100985.85;;;25.42;64.84
50867;BME280;36839;51.946;21.002;2023-09-08T09:53:17;100987.77;;;25.53;62.53
50867;BME280;36839;51.946;21.002;2023-09-08T09:55:46;100984.94;;;25.55;62.94
50867;BME280;36839;51.946;21.002;2023-09-08T09:58:13;100978.60;;;25.49;62.22
50867;BME280;36839;51.946;21.002;2023-09-08T10:00:43;100978.82;;;25.44;63.17
50867;BME280;36839;51.946;21.002;2023-09-08T10:03:15;100973.20;;;25.40;63.64
50867;BME280;36839;51.946;21.002;2023-09-08T10:05:43;100967.23;;;25.42;64.96
50867;BME280;36839;51.946;21.002;2023-09-08T10:08:10;100966.60;;;25.51;67.19
50867;BME280;36839;51.946;21.002;2023-09-08T10:10:39;100965.04;;;25.67;63.31
50867;BME280;36839;51.946;21.002;2023-09-08T10:13:10;100962.58;;;25.88;64.99
50867;BME280;36839;51.946;21.002;2023-09-08T10:15:40;100958.23;;;25.98;61.70
50867;BME280;36839;51.946;21.002;2023-09-08T10:18:09;100958.75;;;26.15;61.62
50867;BME280;36839;51.946;21.002;2023-09-08T10:20:38;100958.23;;;26.40;60.41
50867;BME280;36839;51.946;21.002;2023-09-08T10:23:41;100952.19;;;26.60;59.83
50867;BME280;36839;51.946;21.002;2023-09-08T10:26:15;100951.86;;;26.70;58.32
50867;BME280;36839;51.946;21.002;2023-09-08T10:28:44;100951.79;;;26.64;57.99
50867;BME280;36839;51.946;21.002;2023-09-08T10:31:13;100953.61;;;26.65;59.11
50867;BME280;36839;51.946;21.002;2023-09-08T10:33:42;100953.04;;;26.68;56.89
50867;BME280;36839;51.946;21.002;2023-09-08T10:36:24;100951.17;;;26.79;57.15
50867;BME280;36839;51.946;21.002;2023-09-08T10:38:51;100948.59;;;26.80;54.63
50867;BME280;36839;51.946;21.002;2023-09-08T10:44:01;100944.31;;;26.92;55.17
50867;BME280;36839;51.946;21.002;2023-09-08T10:46:31;100945.61;;;26.98;53.39
50867;BME280;36839;51.946;21.002;2023-09-08T10:49:04;100938.11;;;26.93;51.68
50867;BME280;36839;51.946;21.002;2023-09-08T10:51:35;100936.05;;;26.77;51.41
50867;BME280;36839;51.946;21.002;2023-09-08T10:54:03;100935.52;;;26.81;52.33
50867;BME280;36839;51.946;21.002;2023-09-08T10:56:54;100934.80;;;27.02;52.40
50867;BME280;36839;51.946;21.002;2023-09-08T10:59:22;100932.25;;;27.25;51.10
50867;BME280;36839;51.946;21.002;2023-09-08T11:01:48;100929.11;;;27.28;50.33
50867;BME280;36839;51.946;21.002;2023-09-08T11:04:17;100926.83;;;27.29;50.62
50867;BME280;36839;51.946;21.002;2023-09-08T11:06:45;100927.59;;;27.14;50.03
50867;BME280;36839;51.946;21.002;2023-09-08T11:09:11;100922.89;;;26.99;50.35
50867;BME280;36839;51.946;21.002;2023-09-08T11:11:46;100925.20;;;27.03;50.35
50867;BME280;36839;51.946;21.002;2023-09-08T11:14:14;100921.78;;;27.12;50.46
50867;BME280;36839;51.946;21.002;2023-09-08T11:16:41;100916.87;;;27.22;49.98
50867;BME280;36839;51.946;21.002;2023-09-08T11:19:23;100917.44;;;27.29;50.66
50867;BME280;36839;51.946;21.002;2023-09-08T11:21:51;100913.19;;;27.28;49.06
50867;BME280;36839;51.946;21.002;2023-09-08T11:24:17;100906.98;;;27.39;48.98
50867;BME280;36839;51.946;21.002;2023-09-08T11:26:46;100909.95;;;27.44;49.50
50867;BME280;36839;51.946;21.002;2023-09-08T11:29:14;100905.33;;;27.61;50.59
50867;BME280;36839;51.946;21.002;2023-09-08T11:31:40;100905.13;;;27.86;50.95
50867;BME280;36839;51.946;21.002;2023-09-08T11:34:11;100902.59;;;28.03;49.67
50867;BME280;36839;51.946;21.002;2023-09-08T11:36:39;100905.55;;;28.13;48.37
50867;BME280;36839;51.946;21.002;2023-09-08T11:39:14;100900.40;;;28.18;48.91
50867;BME280;36839;51.946;21.002;2023-09-08T11:41:40;100901.67;;;28.17;48.43
50867;BME280;36839;51.946;21.002;2023-09-08T11:44:07;100897.48;;;28.18;48.34
50867;BME280;36839;51.946;21.002;2023-09-08T11:46:36;100901.01;;;28.16;46.91
50867;BME280;36839;51.946;21.002;2023-09-08T11:49:07;100896.69;;;28.12;46.56
50867;BME280;36839;51.946;21.002;2023-09-08T11:51:33;100895.60;;;28.10;47.05
50867;BME280;36839;51.946;21.002;2023-09-08T11:54:01;100895.84;;;28.02;47.67
50867;BME280;36839;51.946;21.002;2023-09-08T11:56:27;100892.52;;;27.96;48.71
50867;BME280;36839;51.946;21.002;2023-09-08T11:58:53;100892.78;;;27.85;48.99
50867;BME280;36839;51.946;21.002;2023-09-08T12:01:19;100887.80;;;27.60;48.71
50867;BME280;36839;51.946;21.002;2023-09-08T12:03:55;100885.14;;;27.44;49.72
50867;BME280;36839;51.946;21.002;2023-09-08T12:06:28;100884.85;;;27.51;49.65
50867;BME280;36839;51.946;21.002;2023-09-08T12:09:01;100877.84;;;27.64;49.41
50867;BME280;36839;51.946;21.002;2023-09-08T12:11:35;100873.84;;;27.62;48.06
50867;BME280;36839;51.946;21.002;2023-09-08T12:14:07;100872.61;;;27.72;47.21
50867;BME280;36839;51.946;21.002;2023-09-08T12:16:42;100866.14;;;27.72;45.80
50867;BME280;36839;51.946;21.002;2023-09-08T12:19:28;100863.84;;;27.79;46.69
50867;BME280;36839;51.946;21.002;2023-09-08T12:21:55;100864.84;;;27.83;46.76
50867;BME280;36839;51.946;21.002;2023-09-08T12:24:56;100860.05;;;27.83;47.29
50867;BME280;36839;51.946;21.002;2023-09-08T12:27:27;100860.00;;;27.78;46.76
50867;BME280;36839;51.946;21.002;2023-09-08T12:30:01;100857.61;;;27.79;47.27
50867;BME280;36839;51.946;21.002;2023-09-08T12:32:32;100858.80;;;28.01;47.30
50867;BME280;36839;51.946;21.002;2023-09-08T12:35:03;100856.23;;;28.09;46.43
50867;BME280;36839;51.946;21.002;2023-09-08T12:37:32;100857.24;;;28.23;46.14
50867;BME280;36839;51.946;21.002;2023-09-08T12:40:01;100855.48;;;28.28;45.63
50867;BME280;36839;51.946;21.002;2023-09-08T12:42:28;100856.52;;;28.31;45.13
50867;BME280;36839;51.946;21.002;2023-09-08T12:44:57;100852.24;;;28.25;45.19
50867;BME280;36839;51.946;21.002;2023-09-08T12:47:25;100854.35;;;28.13;45.06
50867;BME280;36839;51.946;21.002;2023-09-08T12:50:07;100845.79;;;28.07;45.22